Time;durP1;ratioP1;P1;durP2;ratioP2;P2;SDS_P1;SDS_P2;PMS_P1;PMS_P2;Temp;Humidity;BMP_temperature;BMP_pressure;BME280_temperature;BME280_humidity;BME280_pressure;Samples;Min_cycle;Max_cycle;Signal;HPM_P1;HPM_P2
2022/04/15 04:30:30;;;;;;;;;9.00;9.00;;;;;16.01;59.02;102058.38;5028988;28;45696;-72
2022/04/15 04:32:58;;;;;;;;;8.50;6.00;;;;;16.00;59.32;102071.03;5034848;28;45312;-72
2022/04/15 04:35:23;;;;;;;;;11.25;9.00;;;;;16.02;59.57;102066.44;5034357;28;46237;-71
2022/04/15 04:37:49;;;;;;;;;11.25;10.75;;;;;16.00;59.01;102071.03;5034826;28;45206;-71
2022/04/15 04:40:15;;;;;;;;;13.25;10.00;;;;;16.02;59.05;102077.25;5035023;28;45404;-72
2022/04/15 04:42:42;;;;;;;;;10.00;8.50;;;;;16.00;58.88;102076.44;5034444;28;45202;-72
2022/04/15 04:45:10;;;;;;;;;10.00;10.00;;;;;16.00;59.09;102067.44;5035020;28;46616;-72
2022/04/15 04:47:37;;;;;;;;;10.25;9.75;;;;;15.96;59.14;102079.38;5034463;28;45392;-73
2022/04/15 04:50:04;;;;;;;;;9.50;9.25;;;;;15.93;59.41;102080.38;5035089;28;45355;-72
2022/04/15 04:52:29;;;;;;;;;10.00;10.00;;;;;15.89;59.48;102089.59;5034748;28;46102;-71
2022/04/15 04:54:55;;;;;;;;;10.00;8.25;;;;;15.75;59.96;102089.34;5034862;28;45775;-73
2022/04/15 04:57:20;;;;;;;;;11.00;11.00;;;;;15.66;60.17;102087.94;5034428;28;45379;-73
2022/04/15 04:59:45;;;;;;;;;13.75;13.50;;;;;15.62;60.36;102096.28;5034799;28;45427;-72
2022/04/15 05:02:12;;;;;;;;;11.75;11.75;;;;;15.54;60.67;102096.63;5034332;28;45433;-74
2022/04/15 05:04:39;;;;;;;;;10.75;10.50;;;;;15.48;60.82;102104.97;5034615;28;45272;-75
2022/04/15 05:07:05;;;;;;;;;10.50;10.50;;;;;15.41;61.02;102101.66;5037706;28;45538;-75
2022/04/15 05:09:30;;;;;;;;;11.00;10.75;;;;;15.39;60.77;102105.38;5035455;28;45611;-73
2022/04/15 05:11:55;;;;;;;;;9.50;8.25;;;;;15.41;60.79;102106.19;5034208;28;45438;-74
2022/04/15 05:14:21;;;;;;;;;13.75;12.00;;;;;15.48;60.61;102104.97;5034368;28;45414;-72
2022/04/15 05:16:46;;;;;;;;;9.75;8.75;;;;;15.51;60.76;102107.53;5034153;28;45432;-74
2022/04/15 05:19:12;;;;;;;;;12.25;11.00;;;;;15.51;60.89;102119.22;5034463;28;45387;-76
2022/04/15 05:21:38;;;;;;;;;13.75;10.50;;;;;15.48;60.79;102115.78;5034276;28;45656;-70
2022/04/15 05:24:03;;;;;;;;;9.00;8.25;;;;;15.44;60.59;102104.22;5035121;28;45508;-75
2022/04/15 05:26:33;;;;;;;;;13.25;11.50;;;;;15.51;60.68;102116.53;5032367;28;45864;-75
2022/04/15 05:28:58;;;;;;;;;10.00;9.00;;;;;15.49;60.80;102120.22;5034808;28;45455;-75
2022/04/15 05:31:23;;;;;;;;;11.75;11.00;;;;;15.54;61.04;102123.66;5033879;28;45672;-76
2022/04/15 05:33:49;;;;;;;;;8.50;8.50;;;;;15.56;60.66;102118.19;5016233;28;47014;-71
2022/04/15 05:36:14;;;;;;;;;10.50;9.50;;;;;15.60;60.39;102120.66;5034019;28;45415;-68
2022/04/15 05:38:39;;;;;;;;;11.75;10.00;;;;;15.57;60.58;102103.72;5034430;28;45435;-69
2022/04/15 05:41:06;;;;;;;;;12.00;11.00;;;;;15.68;60.05;102118.50;5033493;28;45434;-72
2022/04/15 05:43:31;;;;;;;;;10.25;8.50;;;;;15.75;60.09;102128.09;5033548;28;46092;-73
2022/04/15 05:45:57;;;;;;;;;9.25;9.25;;;;;15.75;59.91;102125.38;5033881;28;45376;-72
2022/04/15 05:48:22;;;;;;;;;12.00;9.00;;;;;15.75;60.24;102133.50;5036932;28;45377;-72
2022/04/15 05:50:47;;;;;;;;;8.75;8.75;;;;;15.76;60.10;102126.25;5037721;28;45609;-72
2022/04/15 05:53:13;;;;;;;;;13.25;12.25;;;;;15.83;60.04;102141.25;5037893;28;45363;-71
2022/04/15 05:55:39;;;;;;;;;13.50;12.00;;;;;15.80;59.96;102133.28;5037817;28;45403;-71
2022/04/15 05:58:04;;;;;;;;;10.50;9.50;;;;;15.85;60.32;102132.13;5037349;28;45383;-71
2022/04/15 06:00:29;;;;;;;;;12.25;11.00;;;;;15.88;59.88;102139.22;5037220;28;45449;-72
2022/04/15 06:02:55;;;;;;;;;12.50;11.25;;;;;15.91;59.43;102130.13;5036188;28;46053;-74
2022/04/15 06:05:22;;;;;;;;;15.00;11.00;;;;;15.92;59.75;102134.53;5037173;28;45250;-72
2022/04/15 06:07:47;;;;;;;;;10.50;9.00;;;;;15.98;59.15;102143.28;5037439;28;45430;-72
2022/04/15 06:10:13;;;;;;;;;9.50;9.50;;;;;16.04;59.05;102145.69;5037181;28;45281;-73
2022/04/15 06:15:24;;;;;;;;;11.00;11.00;;;;;16.16;58.79;102153.22;5037414;28;45324;-71
2022/04/15 06:17:50;;;;;;;;;11.25;11.25;;;;;16.17;59.06;102170.34;5036884;28;45443;-72
2022/04/15 06:20:17;;;;;;;;;12.50;10.25;;;;;16.05;58.85;102135.75;5037885;28;45303;-71
2022/04/15 06:22:43;;;;;;;;;12.00;11.25;;;;;16.21;58.95;102166.56;5037827;28;45555;-73
2022/04/15 06:25:11;;;;;;;;;13.25;13.25;;;;;16.19;58.76;102158.50;5036969;28;45399;-72
2022/04/15 06:27:36;;;;;;;;;15.50;13.00;;;;;16.19;58.81;102163.03;5036759;28;45423;-73
2022/04/15 06:30:03;;;;;;;;;9.50;9.50;;;;;16.17;58.68;102173.03;5035738;28;46209;-73
2022/04/15 06:32:29;;;;;;;;;13.00;12.00;;;;;16.19;58.16;102166.63;5036396;28;46228;-73
2022/04/15 06:34:54;;;;;;;;;10.75;10.25;;;;;16.18;58.51;102163.97;5036653;28;45461;-73
2022/04/15 06:37:19;;;;;;;;;8.75;6.50;;;;;16.15;57.99;102164.13;5037119;28;45237;-71
2022/04/15 06:39:50;;;;;;;;;12.75;10.00;;;;;16.19;58.41;102174.72;5036803;28;45474;-71
2022/04/15 06:42:20;;;;;;;;;15.50;14.00;;;;;16.23;57.87;102165.53;5036348;28;47246;-72
2022/04/15 06:44:45;;;;;;;;;12.25;12.25;;;;;16.25;58.13;102171.72;5037205;28;45709;-71
2022/04/15 06:47:11;;;;;;;;;14.75;13.25;;;;;16.27;57.81;102169.84;5036911;28;45410;-73
2022/04/15 06:49:36;;;;;;;;;15.75;14.00;;;;;16.25;57.81;102176.25;5036882;28;45373;-72
2022/04/15 06:52:01;;;;;;;;;15.50;13.25;;;;;16.19;57.78;102177.44;5036502;28;45980;-72
2022/04/15 06:54:27;;;;;;;;;14.50;13.50;;;;;16.13;57.66;102177.72;5036837;28;45418;-73
2022/04/15 06:56:52;;;;;;;;;13.50;13.00;;;;;16.09;57.95;102176.09;5036377;28;45449;-72
2022/04/15 06:59:18;;;;;;;;;16.25;13.50;;;;;16.06;57.82;102169.97;5034126;28;45358;-72
2022/04/15 07:01:44;;;;;;;;;13.25;10.75;;;;;16.07;57.97;102174.44;5035272;28;45494;-72
2022/04/15 07:04:09;;;;;;;;;9.75;9.75;;;;;16.14;57.83;102187.59;5033074;28;45509;-71
2022/04/15 07:06:35;;;;;;;;;12.75;12.75;;;;;16.20;58.22;102181.03;5028441;28;45487;-71
2022/04/15 07:09:00;;;;;;;;;13.25;11.50;;;;;16.21;58.00;102188.19;5036266;28;45530;-71
2022/04/15 07:11:25;;;;;;;;;14.75;13.75;;;;;16.21;57.39;102183.66;5035637;28;45394;-73
2022/04/15 07:13:51;;;;;;;;;12.00;12.00;;;;;16.14;57.52;102175.91;5036304;28;45408;-73
2022/04/15 07:16:16;;;;;;;;;11.00;10.75;;;;;16.22;57.70;102185.44;5036053;28;45357;-72
2022/04/15 07:18:41;;;;;;;;;14.75;13.75;;;;;16.19;57.46;102179.25;5035586;28;45409;-71
2022/04/15 07:21:06;;;;;;;;;12.50;11.00;;;;;16.22;57.41;102187.25;5036045;28;45189;-74
2022/04/15 07:23:32;;;;;;;;;11.25;10.50;;;;;16.24;57.84;102190.78;5036513;28;45334;-72
2022/04/15 07:25:57;;;;;;;;;13.00;11.75;;;;;16.30;57.79;102190.47;5035570;28;45407;-71
2022/04/15 07:28:23;;;;;;;;;13.25;13.25;;;;;16.38;57.39;102188.28;5035369;28;45533;-71
2022/04/15 07:30:48;;;;;;;;;17.50;14.00;;;;;16.44;57.45;102190.69;5035738;28;46196;-73
2022/04/15 07:33:15;;;;;;;;;13.50;12.50;;;;;16.45;57.01;102197.88;5035572;28;45464;-72
2022/04/15 07:35:40;;;;;;;;;15.00;14.00;;;;;16.51;57.02;102191.28;5035792;28;45348;-71
2022/04/15 07:38:05;;;;;;;;;14.00;14.00;;;;;16.48;57.00;102196.84;5034862;28;45391;-72
2022/04/15 07:40:31;;;;;;;;;13.25;13.25;;;;;16.48;57.50;102189.63;5035348;28;45819;-73
2022/04/15 07:43:01;;;;;;;;;14.25;12.25;;;;;16.46;57.25;102183.38;5035149;28;45312;-72
2022/04/15 07:45:28;;;;;;;;;16.00;14.00;;;;;16.58;57.00;102190.06;5017645;28;45252;-72
2022/04/15 07:47:53;;;;;;;;;13.25;12.00;;;;;16.64;57.11;102185.25;5035205;28;45748;-71
2022/04/15 07:50:24;;;;;;;;;16.00;14.00;;;;;16.68;56.88;102185.09;5035148;28;45595;-72
2022/04/15 07:52:50;;;;;;;;;14.75;13.50;;;;;16.73;56.60;102183.06;5034713;28;45398;-72
2022/04/15 07:55:16;;;;;;;;;13.25;13.00;;;;;16.71;56.93;102183.13;5035479;28;45482;-73
2022/04/15 07:57:41;;;;;;;;;16.50;15.50;;;;;16.80;56.67;102196.22;5034904;28;45379;-72
2022/04/15 08:00:07;;;;;;;;;14.50;14.50;;;;;16.86;56.43;102189.59;5035411;28;46517;-72
2022/04/15 08:02:33;;;;;;;;;15.25;10.75;;;;;16.91;56.27;102185.75;5034613;28;45473;-74
2022/04/15 08:04:58;;;;;;;;;17.00;13.75;;;;;17.01;56.14;102187.00;5034305;28;45434;-72
2022/04/15 08:07:24;;;;;;;;;16.00;15.00;;;;;17.13;55.76;102193.66;5034451;28;45507;-73
2022/04/15 08:09:50;;;;;;;;;15.50;13.25;;;;;17.21;55.77;102194.16;5034615;28;46347;-72
2022/04/15 08:12:15;;;;;;;;;15.50;13.50;;;;;17.21;55.51;102183.31;5034288;28;45395;-72
2022/04/15 08:14:41;;;;;;;;;18.00;15.50;;;;;17.22;55.36;102179.66;5035094;28;45246;-73
2022/04/15 08:17:06;;;;;;;;;12.50;11.50;;;;;17.32;55.42;102183.66;5035031;28;45545;-72
2022/04/15 08:19:32;;;;;;;;;11.50;11.50;;;;;17.35;55.34;102179.91;5034591;28;45935;-74
2022/04/15 08:21:58;;;;;;;;;15.00;13.00;;;;;17.51;55.15;102180.00;5034009;28;45793;-72
2022/04/15 08:24:23;;;;;;;;;17.75;13.00;;;;;17.54;54.54;102167.13;5035452;28;45463;-71
2022/04/15 08:26:49;;;;;;;;;11.75;11.75;;;;;17.76;54.09;102191.34;5034165;28;45569;-71
2022/04/15 08:29:16;;;;;;;;;16.00;13.25;;;;;17.80;53.49;102187.50;5034681;28;45368;-73
2022/04/15 08:31:41;;;;;;;;;16.25;13.00;;;;;17.89;53.19;102191.56;5034192;28;45369;-71
2022/04/15 08:34:07;;;;;;;;;17.50;14.25;;;;;17.93;52.97;102185.91;5034622;28;45174;-71
2022/04/15 08:36:32;;;;;;;;;13.00;11.75;;;;;18.03;52.80;102183.56;5034230;28;45479;-71
2022/04/15 08:38:58;;;;;;;;;7.25;7.25;;;;;18.11;52.05;102194.88;5034371;28;45888;-72
2022/04/15 08:41:29;;;;;;;;;8.25;5.50;;;;;18.19;52.14;102189.03;5034311;28;45288;-72
2022/04/15 08:43:56;;;;;;;;;13.00;8.25;;;;;18.22;51.58;102192.44;5034897;28;45359;-73
2022/04/15 08:46:23;;;;;;;;;7.25;7.25;;;;;18.34;51.31;102190.91;5034849;28;45532;-73
2022/04/15 08:48:50;;;;;;;;;6.75;5.00;;;;;18.38;51.13;102187.03;5034327;28;46658;-74
2022/04/15 08:51:16;;;;;;;;;5.00;5.00;;;;;18.48;50.39;102194.59;5034671;28;45408;-70
2022/04/15 08:53:43;;;;;;;;;3.00;3.00;;;;;18.51;49.84;102199.00;5033522;28;45669;-74
2022/04/15 08:56:08;;;;;;;;;3.75;3.00;;;;;18.50;50.25;102194.50;5034544;28;45387;-72
2022/04/15 08:58:35;;;;;;;;;6.75;6.00;;;;;18.53;50.53;102192.53;5033962;28;45430;-72
2022/04/15 09:01:00;;;;;;;;;11.25;9.00;;;;;18.58;49.48;102191.41;5034690;28;46058;-73
2022/04/15 09:03:26;;;;;;;;;12.25;10.25;;;;;18.56;50.34;102190.56;5033919;28;45607;-72
2022/04/15 09:05:51;;;;;;;;;9.00;9.00;;;;;18.67;50.32;102197.19;5034182;28;45566;-73
2022/04/15 09:08:17;;;;;;;;;14.00;11.25;;;;;18.72;50.06;102194.19;5033135;28;45911;-73
2022/04/15 09:10:42;;;;;;;;;13.00;10.00;;;;;18.74;50.33;102204.03;5033089;28;45647;-69
2022/04/15 09:13:22;;;;;;;;;12.00;8.00;;;;;18.80;50.06;102202.78;5034371;28;45623;-72
2022/04/15 09:15:48;;;;;;;;;6.00;6.00;;;;;18.83;49.80;102213.50;5034579;28;45383;-72
2022/04/15 09:18:36;;;;;;;;;5.00;5.00;;;;;18.88;50.15;102209.53;5033888;28;45414;-71
2022/04/15 09:21:22;;;;;;;;;7.75;6.50;;;;;18.90;49.15;102206.75;5034221;28;45385;-71
2022/04/15 09:23:52;;;;;;;;;5.50;5.00;;;;;18.92;49.31;102207.53;5033617;28;45467;-74
2022/04/15 09:26:19;;;;;;;;;11.25;10.00;;;;;18.94;48.45;102207.44;5033830;28;45387;-73
2022/04/15 09:28:45;;;;;;;;;7.25;7.25;;;;;18.90;49.15;102207.63;5033758;28;45370;-75
2022/04/15 09:31:14;;;;;;;;;5.00;4.00;;;;;18.93;48.95;102208.41;5033816;28;47099;-74
2022/04/15 09:33:50;;;;;;;;;5.75;5.75;;;;;18.97;48.86;102210.00;5032360;28;45525;-71
2022/04/15 09:36:23;;;;;;;;;6.50;6.25;;;;;19.02;49.08;102207.88;5033717;28;45849;-73
2022/04/15 09:38:50;;;;;;;;;5.00;5.00;;;;;19.04;48.60;102205.97;5032282;28;45274;-74
2022/04/15 09:41:23;;;;;;;;;5.50;3.00;;;;;19.09;49.18;102201.13;5015125;28;45523;-71
2022/04/15 09:43:53;;;;;;;;;4.75;4.00;;;;;19.02;48.92;102186.16;5033652;28;45508;-74
2022/04/15 09:46:19;;;;;;;;;3.75;3.75;;;;;19.19;49.26;102200.50;5034005;28;45279;-73
2022/04/15 09:49:03;;;;;;;;;8.50;5.50;;;;;19.23;48.50;102204.78;5033315;28;46269;-76
2022/04/15 09:51:35;;;;;;;;;10.50;6.75;;;;;19.25;48.84;102202.84;5033950;28;45357;-74
2022/04/15 09:54:09;;;;;;;;;4.25;4.25;;;;;19.29;48.51;102200.84;5033311;28;45442;-74
2022/04/15 09:56:39;;;;;;;;;7.50;6.00;;;;;19.30;48.24;102194.44;5033658;28;45359;-73
2022/04/15 09:59:13;;;;;;;;;5.50;5.00;;;;;19.38;48.87;102191.25;5033667;28;45351;-74
2022/04/15 10:01:44;;;;;;;;;5.75;5.75;;;;;19.28;47.96;102175.50;5033338;28;45308;-77
2022/04/15 10:04:12;;;;;;;;;4.25;4.25;;;;;19.46;48.30;102200.72;5034163;28;45359;-74
2022/04/15 10:06:40;;;;;;;;;4.00;4.00;;;;;19.46;48.42;102192.56;5034969;28;45546;-77
2022/04/15 10:09:06;;;;;;;;;7.25;5.00;;;;;19.57;48.50;102202.78;5033911;28;46164;-78
2022/04/15 10:11:35;;;;;;;;;4.75;4.75;;;;;19.56;47.99;102184.75;5033640;28;45355;-79
2022/04/15 10:14:01;;;;;;;;;5.00;5.00;;;;;19.56;47.38;102193.75;5032167;28;45344;-69
2022/04/15 10:16:28;;;;;;;;;6.75;4.50;;;;;19.67;47.77;102198.56;5033029;28;45465;-69
2022/04/15 10:18:53;;;;;;;;;4.50;4.50;;;;;19.70;47.18;102192.06;5033350;28;46431;-70
2022/04/15 10:21:19;;;;;;;;;6.00;4.75;;;;;19.65;47.68;102182.31;5029862;28;45416;-71
2022/04/15 10:23:45;;;;;;;;;3.25;3.25;;;;;19.78;47.11;102195.19;5033913;28;45631;-70
2022/04/15 10:26:11;;;;;;;;;3.75;3.75;;;;;19.82;47.08;102199.50;5032879;28;45455;-70
2022/04/15 10:28:39;;;;;;;;;5.00;5.00;;;;;19.86;47.16;102179.25;5033580;28;46298;-71
2022/04/15 10:31:13;;;;;;;;;4.25;4.25;;;;;19.96;46.37;102191.34;5033338;28;45470;-70
2022/04/15 10:33:40;;;;;;;;;3.75;2.00;;;;;20.01;46.60;102187.34;5033818;28;45324;-70
2022/04/15 10:36:20;;;;;;;;;4.75;4.75;;;;;20.07;46.63;102186.09;5036506;28;45601;-69
2022/04/15 10:39:03;;;;;;;;;5.00;4.00;;;;;20.14;46.18;102176.56;5036686;28;47209;-70
2022/04/15 10:41:41;;;;;;;;;3.75;3.75;;;;;20.21;45.55;102179.78;5025220;28;45296;-71
2022/04/15 10:44:14;;;;;;;;;5.25;4.00;;;;;20.24;45.35;102174.13;5036668;28;45534;-70
2022/04/15 10:46:40;;;;;;;;;7.25;4.00;;;;;20.29;44.88;102172.88;5036799;28;45554;-70
2022/04/15 10:49:23;;;;;;;;;4.00;4.00;;;;;20.32;44.93;102172.69;5036447;28;45909;-69
2022/04/15 10:51:52;;;;;;;;;3.50;3.00;;;;;20.36;45.01;102171.53;5036825;28;45502;-69
2022/04/15 10:54:36;;;;;;;;;5.00;5.00;;;;;20.43;44.63;102169.28;5037572;28;45228;-69
2022/04/15 10:57:03;;;;;;;;;3.75;3.75;;;;;20.41;45.08;102164.91;5036164;28;45620;-69
2022/04/15 11:02:17;;;;;;;;;3.00;2.00;;;;;20.48;42.78;102172.59;5035705;28;45362;-71
2022/04/15 11:04:47;;;;;;;;;3.00;1.75;;;;;20.37;42.40;102166.94;5036609;28;45489;-71
2022/04/15 11:07:25;;;;;;;;;3.25;3.25;;;;;20.35;42.66;102164.31;5036407;28;45618;-71
2022/04/15 11:09:51;;;;;;;;;2.00;2.00;;;;;20.37;43.65;102170.56;5036159;28;46284;-72
2022/04/15 11:12:35;;;;;;;;;2.00;2.00;;;;;20.35;43.24;102158.00;5035898;28;45419;-69
2022/04/15 11:15:05;;;;;;;;;1.75;1.75;;;;;20.37;43.16;102143.31;5036197;28;45422;-71
2022/04/15 11:17:47;;;;;;;;;2.00;2.00;;;;;20.47;43.02;102150.91;5036229;28;45372;-71
2022/04/15 11:20:12;;;;;;;;;1.50;1.50;;;;;20.50;42.70;102148.81;5023681;28;46595;-70
2022/04/15 11:22:43;;;;;;;;;1.25;1.25;;;;;20.55;42.31;102157.59;5036034;28;45324;-71
2022/04/15 11:25:10;;;;;;;;;1.00;1.00;;;;;20.57;41.79;102154.78;5036309;28;45520;-70
2022/04/15 11:27:39;;;;;;;;;0.00;0.00;;;;;20.71;41.78;102155.59;5035427;28;45324;-71
2022/04/15 11:30:11;;;;;;;;;3.00;1.00;;;;;20.82;41.30;102159.47;5036416;28;45307;-70
2022/04/15 11:32:46;;;;;;;;;2.00;1.00;;;;;20.94;41.06;102159.53;5035611;28;45367;-70
2022/04/15 11:35:12;;;;;;;;;1.25;0.75;;;;;21.10;39.80;102153.91;5036239;28;45320;-70
2022/04/15 11:37:38;;;;;;;;;1.25;1.00;;;;;21.25;39.05;102158.38;5035593;28;45533;-71
2022/04/15 11:40:06;;;;;;;;;1.50;1.00;;;;;21.40;39.95;102145.53;5036128;28;45500;-70
2022/04/15 11:42:32;;;;;;;;;1.00;1.00;;;;;21.54;39.93;102150.88;5035857;28;45527;-71
2022/04/15 11:44:57;;;;;;;;;3.00;2.25;;;;;21.71;38.96;102144.25;5035912;28;45355;-71
2022/04/15 11:47:25;;;;;;;;;1.50;1.50;;;;;21.78;38.88;102138.25;5033673;28;45497;-75
2022/04/15 11:49:51;;;;;;;;;2.00;2.00;;;;;21.82;37.41;102153.44;5030292;28;47122;-75
2022/04/15 11:52:27;;;;;;;;;2.00;2.00;;;;;21.79;37.47;102145.47;5034097;28;45513;-75
2022/04/15 11:54:54;;;;;;;;;1.00;1.00;;;;;21.82;38.27;102149.84;5040341;28;45378;-76
2022/04/15 11:57:21;;;;;;;;;1.75;1.75;;;;;21.96;38.43;102137.91;5034120;28;45505;-76
2022/04/15 11:59:48;;;;;;;;;2.75;2.75;;;;;22.18;37.95;102136.31;5034840;28;46008;-76
2022/04/15 12:02:15;;;;;;;;;1.50;1.50;;;;;22.35;37.21;102140.56;5021200;28;45366;-75
2022/04/15 12:04:57;;;;;;;;;3.00;3.00;;;;;22.46;37.31;102137.00;5035161;28;45316;-77
2022/04/15 12:07:24;;;;;;;;;1.00;1.00;;;;;22.62;37.04;102140.38;5020590;28;45760;-70
2022/04/15 12:09:51;;;;;;;;;1.00;1.00;;;;;22.83;36.77;102136.06;5030864;28;45943;-69
2022/04/15 12:12:21;;;;;;;;;1.00;1.00;;;;;23.13;36.41;102138.34;5034996;28;45319;-69
2022/04/15 12:14:53;;;;;;;;;1.50;0.75;;;;;23.35;35.31;102129.34;5035348;28;45356;-70
2022/04/15 12:17:20;;;;;;;;;2.25;2.25;;;;;23.69;34.99;102138.53;5018118;28;45429;-70
2022/04/15 12:19:47;;;;;;;;;1.00;1.00;;;;;23.73;34.76;102109.94;5034383;28;46303;-69
2022/04/15 12:22:13;;;;;;;;;1.75;1.75;;;;;24.17;33.69;102135.59;5017104;28;46135;-70
2022/04/15 12:24:39;;;;;;;;;0.75;0.75;;;;;24.39;33.24;102119.19;5034965;28;45347;-69
2022/04/15 12:27:07;;;;;;;;;1.00;1.00;;;;;24.76;33.24;102127.94;5034633;28;45427;-66
2022/04/15 12:29:48;;;;;;;;;1.50;1.50;;;;;24.97;32.00;102112.47;5035664;28;46269;-69
2022/04/15 12:32:40;;;;;;;;;2.00;2.00;;;;;25.41;32.77;102127.00;5034233;28;45427;-69
2022/04/15 12:35:07;;;;;;;;;1.00;1.00;;;;;25.79;31.85;102135.53;5031874;28;45332;-69
2022/04/15 12:37:43;;;;;;;;;1.00;1.00;;;;;26.11;31.42;102138.19;5034553;28;45307;-71
2022/04/15 12:40:11;;;;;;;;;2.00;2.00;;;;;26.43;29.73;102126.19;5034708;28;45354;-70
2022/04/15 12:42:39;;;;;;;;;1.00;1.00;;;;;26.57;29.21;102092.78;5032454;28;45438;-69
2022/04/15 12:45:09;;;;;;;;;1.50;1.50;;;;;26.88;29.80;102123.84;5034729;28;45708;-69
2022/04/15 12:47:36;;;;;;;;;3.00;2.00;;;;;26.90;29.15;102108.91;5034107;28;45284;-71
2022/04/15 12:50:16;;;;;;;;;3.25;3.00;;;;;26.88;29.35;102116.44;5016676;28;45606;-70
2022/04/15 12:52:42;;;;;;;;;5.50;1.50;;;;;27.04;29.91;102111.28;5033762;28;46212;-70
2022/04/15 12:55:08;;;;;;;;;2.75;2.75;;;;;27.26;29.18;102115.63;5034443;28;45353;-69
2022/04/15 12:57:40;;;;;;;;;4.00;1.00;;;;;27.55;29.20;102107.38;5032812;28;45324;-69
2022/04/15 13:00:10;;;;;;;;;0.75;0.75;;;;;27.89;28.41;102107.72;5033390;28;45942;-70
2022/04/15 13:02:36;;;;;;;;;1.00;1.00;;;;;28.41;27.21;102091.56;5034164;28;45512;-70
2022/04/15 13:05:05;;;;;;;;;3.25;2.75;;;;;29.11;26.95;102088.03;5033443;28;45427;-69
2022/04/15 13:07:30;;;;;;;;;2.75;2.75;;;;;29.88;25.39;102094.69;5033526;28;45420;-70
2022/04/15 13:09:56;;;;;;;;;4.00;3.00;;;;;30.63;24.69;102093.88;5032172;28;46237;-71
2022/04/15 13:12:23;;;;;;;;;3.75;2.25;;;;;31.26;24.19;102087.78;5033079;28;45367;-70
2022/04/15 13:14:48;;;;;;;;;1.75;1.75;;;;;31.80;24.13;102090.91;5033771;28;45984;-70
2022/04/15 13:17:14;;;;;;;;;5.00;3.25;;;;;32.18;23.26;102087.34;5033536;28;45840;-70
2022/04/15 13:19:40;;;;;;;;;1.00;1.00;;;;;32.53;22.92;102085.97;5034439;28;45537;-69
2022/04/15 13:22:07;;;;;;;;;5.00;2.00;;;;;32.79;21.97;102082.91;5034389;28;45352;-70
2022/04/15 13:24:33;;;;;;;;;2.00;2.00;;;;;33.34;22.69;102079.06;5033872;28;45307;-68
2022/04/15 13:26:58;;;;;;;;;3.75;2.00;;;;;33.98;21.41;102080.31;5031578;28;45596;-71
2022/04/15 13:29:24;;;;;;;;;3.00;1.25;;;;;34.45;20.06;102082.69;5033114;28;45361;-70
2022/04/15 13:31:50;;;;;;;;;2.75;2.75;;;;;35.12;19.68;102065.72;5032957;28;45645;-70
2022/04/15 13:34:15;;;;;;;;;2.25;1.75;;;;;35.53;19.73;102073.41;5033009;28;45491;-71
2022/04/15 13:36:40;;;;;;;;;1.00;1.00;;;;;35.94;18.93;102067.91;5032855;28;45435;-69
2022/04/15 13:39:06;;;;;;;;;2.75;2.25;;;;;36.33;18.43;102073.72;5033762;28;46137;-70
2022/04/15 13:41:31;;;;;;;;;2.25;2.25;;;;;36.75;18.09;102061.44;5032567;28;45300;-70
2022/04/15 13:43:57;;;;;;;;;4.50;2.50;;;;;36.94;17.74;102061.72;5032637;28;45905;-69
2022/04/15 13:46:24;;;;;;;;;3.00;3.00;;;;;37.06;17.36;102063.69;5032714;28;45482;-69
2022/04/15 13:48:51;;;;;;;;;3.25;2.25;;;;;37.03;17.26;102069.69;5033640;28;46337;-68
2022/04/15 13:51:16;;;;;;;;;3.00;3.00;;;;;37.08;18.08;102052.28;5032581;28;45525;-69
2022/04/15 13:56:34;;;;;;;;;2.00;2.00;;;;;37.73;16.79;102047.78;5033043;28;45359;-70
2022/04/15 13:59:01;;;;;;;;;3.75;3.75;;;;;38.06;16.90;102059.81;5033022;28;46123;-68
2022/04/15 14:01:29;;;;;;;;;4.00;3.25;;;;;38.05;16.66;102062.78;5033765;28;45490;-70
2022/04/15 14:03:55;;;;;;;;;3.50;2.00;;;;;37.96;16.46;102055.69;5019271;28;45439;-70
2022/04/15 14:06:21;;;;;;;;;4.25;3.00;;;;;37.65;16.68;102051.69;5033033;28;45493;-71
2022/04/15 14:08:47;;;;;;;;;5.00;3.00;;;;;37.42;17.36;102062.44;5034696;28;45344;-69
2022/04/15 14:11:12;;;;;;;;;3.00;3.00;;;;;37.43;17.56;102062.19;5036920;28;45364;-70
2022/04/15 14:13:43;;;;;;;;;4.75;3.00;;;;;37.45;17.06;102057.25;5036742;28;45359;-72
2022/04/15 14:16:09;;;;;;;;;3.50;3.50;;;;;37.52;16.74;102062.84;5036321;28;45486;-68
2022/04/15 14:18:34;;;;;;;;;5.00;3.25;;;;;37.71;16.26;102052.75;5036882;28;45420;-70
2022/04/15 14:21:00;;;;;;;;;6.00;6.00;;;;;37.77;16.27;102065.88;5037040;28;45317;-70
2022/04/15 14:23:26;;;;;;;;;4.00;4.00;;;;;37.35;16.79;102055.97;5035433;28;45498;-72
2022/04/15 14:25:52;;;;;;;;;4.00;4.00;;;;;37.17;17.31;102047.38;5034646;28;45395;-69
2022/04/15 14:28:17;;;;;;;;;5.50;4.50;;;;;37.22;16.77;102056.84;5035869;28;46005;-69
2022/04/15 14:30:42;;;;;;;;;5.75;4.50;;;;;37.23;17.30;102055.75;5036156;28;45545;-69
2022/04/15 14:33:08;;;;;;;;;4.25;4.00;;;;;37.33;17.23;102053.41;5037177;28;45358;-71
2022/04/15 14:35:33;;;;;;;;;3.00;3.00;;;;;37.32;16.29;102050.81;5036381;28;45464;-69
2022/04/15 14:37:58;;;;;;;;;3.00;3.00;;;;;37.17;16.57;102050.16;5036587;28;46151;-69
2022/04/15 14:40:24;;;;;;;;;4.00;3.50;;;;;37.07;16.96;102044.97;5036666;28;45221;-71
2022/04/15 14:42:49;;;;;;;;;5.75;4.50;;;;;36.87;16.89;102030.09;5036983;28;45224;-71
2022/04/15 14:45:18;;;;;;;;;6.00;5.00;;;;;36.84;17.48;102047.28;5035415;28;45621;-71
2022/04/15 14:47:44;;;;;;;;;4.75;4.75;;;;;36.52;17.18;102048.88;5035468;28;46142;-69
2022/04/15 14:50:09;;;;;;;;;7.00;6.00;;;;;35.48;18.00;102032.13;5033591;28;45519;-69
2022/04/15 14:52:34;;;;;;;;;6.25;6.00;;;;;35.10;18.55;102044.66;5036832;28;45402;-70
2022/04/15 14:55:01;;;;;;;;;4.75;4.00;;;;;34.89;19.13;102035.22;5035792;28;45403;-72
2022/04/15 14:57:26;;;;;;;;;5.00;5.00;;;;;34.89;18.37;102029.66;5036506;28;45593;-73
2022/04/15 14:59:52;;;;;;;;;5.50;4.50;;;;;34.92;18.00;102032.06;5034807;28;45523;-74
2022/04/15 15:02:17;;;;;;;;;7.00;6.00;;;;;34.91;19.18;102035.03;5036374;28;45293;-72
2022/04/15 15:04:43;;;;;;;;;5.75;5.75;;;;;34.96;19.50;102038.13;5035214;28;45418;-73
2022/04/15 15:07:08;;;;;;;;;9.00;8.00;;;;;35.00;19.45;102038.56;5035968;28;45604;-73
2022/04/15 15:09:34;;;;;;;;;10.00;7.25;;;;;34.71;20.45;102045.09;5035663;28;45343;-72
2022/04/15 15:12:00;;;;;;;;;11.00;11.00;;;;;34.31;20.24;102033.47;5034909;28;45823;-74
2022/04/15 15:14:25;;;;;;;;;5.25;5.25;;;;;33.99;20.68;102040.31;5034182;28;45724;-76
2022/04/15 15:16:51;;;;;;;;;11.25;9.50;;;;;33.80;20.39;102016.69;5036155;28;45521;-75
2022/04/15 15:19:18;;;;;;;;;10.00;8.00;;;;;33.83;21.04;102045.19;5016693;28;45427;-74
2022/04/15 15:21:48;;;;;;;;;10.75;8.75;;;;;33.84;21.31;102030.25;5035231;28;45430;-72
2022/04/15 15:29:51;;;;;;;;;11.00;11.00;;;;;33.50;20.89;102012.16;5035810;28;45258;-80
2022/04/15 15:32:20;;;;;;;;;7.25;7.25;;;;;33.19;21.29;102015.00;5018699;28;45359;-78
2022/04/15 15:34:46;;;;;;;;;8.75;7.75;;;;;32.67;21.52;102023.22;5016445;28;47048;-78
2022/04/15 15:37:11;;;;;;;;;11.00;9.75;;;;;32.09;22.08;102029.25;5016508;28;48259;-74
2022/04/15 15:39:40;;;;;;;;;10.25;9.00;;;;;31.45;22.74;102020.06;5034387;28;45387;-78
2022/04/15 15:42:06;;;;;;;;;10.50;10.50;;;;;31.05;23.79;102026.47;5036844;28;45369;-72
2022/04/15 15:44:32;;;;;;;;;7.50;6.25;;;;;30.86;23.76;102024.03;5035143;28;45356;-74
2022/04/15 15:46:58;;;;;;;;;7.25;7.25;;;;;30.93;23.93;102025.06;5017212;28;46013;-73
2022/04/15 15:49:23;;;;;;;;;17.25;14.75;;;;;30.94;23.74;102024.91;5034946;28;45463;-72
2022/04/15 15:51:49;;;;;;;;;15.25;15.25;;;;;30.90;24.14;102028.19;5036319;28;45336;-75
2022/04/15 15:54:14;;;;;;;;;13.25;12.75;;;;;30.70;23.84;102003.59;5035393;28;45531;-77
2022/04/15 15:56:40;;;;;;;;;15.25;13.75;;;;;30.77;24.36;102026.78;5034782;28;45490;-74
2022/04/15 15:59:07;;;;;;;;;18.50;17.00;;;;;30.51;24.55;102020.53;5035583;28;45423;-77
2022/04/15 16:01:32;;;;;;;;;13.75;13.75;;;;;30.25;25.20;102025.25;5035632;28;45379;-77
2022/04/15 16:04:00;;;;;;;;;14.50;12.50;;;;;29.86;25.05;102036.78;5035190;28;45373;-75